sensor_id;sensor_type;location;lat;lon;timestamp;temperature;humidity
27567;DHT22;15006;48.584;9.186;2024-01-30T00:02:15;-2.00;84.50
27567;DHT22;15006;48.584;9.186;2024-01-30T00:04:41;-2.00;84.40
27567;DHT22;15006;48.584;9.186;2024-01-30T00:07:07;-2.00;84.40
27567;DHT22;15006;48.584;9.186;2024-01-30T00:09:33;-2.10;84.60
27567;DHT22;15006;48.584;9.186;2024-01-30T00:11:59;-2.10;84.90
27567;DHT22;15006;48.584;9.186;2024-01-30T00:14:26;-2.10;85.00
27567;DHT22;15006;48.584;9.186;2024-01-30T00:16:52;-2.10;84.90
27567;DHT22;15006;48.584;9.186;2024-01-30T00:19:18;-2.10;85.00
27567;DHT22;15006;48.584;9.186;2024-01-30T00:21:44;-2.10;85.20
27567;DHT22;15006;48.584;9.186;2024-01-30T00:24:10;-2.10;85.40
27567;DHT22;15006;48.584;9.186;2024-01-30T00:26:36;-2.20;85.70
27567;DHT22;15006;48.584;9.186;2024-01-30T00:29:02;-2.20;85.70
27567;DHT22;15006;48.584;9.186;2024-01-30T00:31:28;-2.20;85.80
27567;DHT22;15006;48.584;9.186;2024-01-30T00:33:55;-2.20;86.00
27567;DHT22;15006;48.584;9.186;2024-01-30T00:36:21;-2.20;86.20
27567;DHT22;15006;48.584;9.186;2024-01-30T00:38:47;-2.20;86.20
27567;DHT22;15006;48.584;9.186;2024-01-30T00:41:13;-2.20;86.20
27567;DHT22;15006;48.584;9.186;2024-01-30T00:43:39;-2.20;86.20
27567;DHT22;15006;48.584;9.186;2024-01-30T00:46:05;-2.20;87.10
27567;DHT22;15006;48.584;9.186;2024-01-30T00:48:31;-2.20;86.50
27567;DHT22;15006;48.584;9.186;2024-01-30T00:50:57;-2.20;86.70
27567;DHT22;15006;48.584;9.186;2024-01-30T00:53:23;-2.20;87.00
27567;DHT22;15006;48.584;9.186;2024-01-30T00:55:49;-2.20;87.20
27567;DHT22;15006;48.584;9.186;2024-01-30T00:58:14;-2.20;87.10
27567;DHT22;15006;48.584;9.186;2024-01-30T01:00:40;-2.20;87.00
27567;DHT22;15006;48.584;9.186;2024-01-30T01:03:06;-2.20;86.90
27567;DHT22;15006;48.584;9.186;2024-01-30T01:05:33;-2.20;86.90
27567;DHT22;15006;48.584;9.186;2024-01-30T01:07:59;-2.20;87.10
27567;DHT22;15006;48.584;9.186;2024-01-30T01:10:25;-2.20;87.30
27567;DHT22;15006;48.584;9.186;2024-01-30T01:12:51;-2.10;87.50
27567;DHT22;15006;48.584;9.186;2024-01-30T01:15:17;-2.20;87.50
27567;DHT22;15006;48.584;9.186;2024-01-30T01:17:43;-2.10;87.70
27567;DHT22;15006;48.584;9.186;2024-01-30T01:20:09;-2.10;87.80
27567;DHT22;15006;48.584;9.186;2024-01-30T01:22:37;-2.10;87.80
27567;DHT22;15006;48.584;9.186;2024-01-30T01:25:04;-2.10;88.00
27567;DHT22;15006;48.584;9.186;2024-01-30T01:27:34;-2.10;88.20
27567;DHT22;15006;48.584;9.186;2024-01-30T01:30:04;-2.00;88.80
27567;DHT22;15006;48.584;9.186;2024-01-30T01:32:31;-2.00;88.80
27567;DHT22;15006;48.584;9.186;2024-01-30T01:34:57;-2.00;88.60
27567;DHT22;15006;48.584;9.186;2024-01-30T01:37:23;-2.00;89.70
27567;DHT22;15006;48.584;9.186;2024-01-30T01:39:52;-2.00;90.40
27567;DHT22;15006;48.584;9.186;2024-01-30T01:42:18;-1.90;90.80
27567;DHT22;15006;48.584;9.186;2024-01-30T01:44:44;-1.90;91.00
27567;DHT22;15006;48.584;9.186;2024-01-30T01:47:10;-1.80;91.20
27567;DHT22;15006;48.584;9.186;2024-01-30T01:49:37;-1.80;91.60
27567;DHT22;15006;48.584;9.186;2024-01-30T01:52:03;-1.70;91.70
27567;DHT22;15006;48.584;9.186;2024-01-30T01:54:30;-1.60;92.00
27567;DHT22;15006;48.584;9.186;2024-01-30T01:56:56;-1.50;92.20
27567;DHT22;15006;48.584;9.186;2024-01-30T01:59:23;-1.50;91.90
27567;DHT22;15006;48.584;9.186;2024-01-30T02:01:51;-1.40;92.10
27567;DHT22;15006;48.584;9.186;2024-01-30T02:04:18;-1.30;92.40
27567;DHT22;15006;48.584;9.186;2024-01-30T02:06:44;-1.30;92.40
27567;DHT22;15006;48.584;9.186;2024-01-30T02:09:10;-1.20;92.40
27567;DHT22;15006;48.584;9.186;2024-01-30T02:11:36;-1.20;92.40
27567;DHT22;15006;48.584;9.186;2024-01-30T02:14:03;-1.10;92.50
27567;DHT22;15006;48.584;9.186;2024-01-30T02:16:30;-1.10;92.50
27567;DHT22;15006;48.584;9.186;2024-01-30T02:18:56;-1.00;92.60
27567;DHT22;15006;48.584;9.186;2024-01-30T02:21:25;-1.00;92.00
27567;DHT22;15006;48.584;9.186;2024-01-30T02:23:52;-0.90;91.70
27567;DHT22;15006;48.584;9.186;2024-01-30T02:26:20;-0.90;91.20
27567;DHT22;15006;48.584;9.186;2024-01-30T02:28:46;-0.90;90.80
27567;DHT22;15006;48.584;9.186;2024-01-30T02:31:12;-1.00;90.40
27567;DHT22;15006;48.584;9.186;2024-01-30T02:33:38;-1.00;90.10
27567;DHT22;15006;48.584;9.186;2024-01-30T02:36:04;-1.00;89.70
27567;DHT22;15006;48.584;9.186;2024-01-30T02:38:30;-1.10;89.00
27567;DHT22;15006;48.584;9.186;2024-01-30T02:40:56;-1.10;88.60
27567;DHT22;15006;48.584;9.186;2024-01-30T02:43:22;-1.20;88.60
27567;DHT22;15006;48.584;9.186;2024-01-30T02:45:48;-1.30;89.10
27567;DHT22;15006;48.584;9.186;2024-01-30T02:48:14;-1.40;89.30
27567;DHT22;15006;48.584;9.186;2024-01-30T02:50:40;-1.40;89.30
27567;DHT22;15006;48.584;9.186;2024-01-30T02:53:06;-1.50;89.00
27567;DHT22;15006;48.584;9.186;2024-01-30T02:55:32;-1.60;88.80
27567;DHT22;15006;48.584;9.186;2024-01-30T02:57:58;-1.70;88.80
27567;DHT22;15006;48.584;9.186;2024-01-30T03:00:24;-1.70;89.50
27567;DHT22;15006;48.584;9.186;2024-01-30T03:02:50;-1.80;90.30
27567;DHT22;15006;48.584;9.186;2024-01-30T03:05:16;-1.80;90.60
27567;DHT22;15006;48.584;9.186;2024-01-30T03:07:42;-1.80;90.60
27567;DHT22;15006;48.584;9.186;2024-01-30T03:10:08;-1.90;90.40
27567;DHT22;15006;48.584;9.186;2024-01-30T03:12:34;-1.90;90.20
27567;DHT22;15006;48.584;9.186;2024-01-30T03:15:00;-2.00;90.00
27567;DHT22;15006;48.584;9.186;2024-01-30T03:17:26;-2.00;89.90
27567;DHT22;15006;48.584;9.186;2024-01-30T03:19:52;-2.00;90.00
27567;DHT22;15006;48.584;9.186;2024-01-30T03:22:18;-2.10;89.80
27567;DHT22;15006;48.584;9.186;2024-01-30T03:24:44;-2.10;89.70
27567;DHT22;15006;48.584;9.186;2024-01-30T03:27:10;-2.20;89.70
27567;DHT22;15006;48.584;9.186;2024-01-30T03:29:36;-2.20;90.00
27567;DHT22;15006;48.584;9.186;2024-01-30T03:32:03;-2.30;90.10
27567;DHT22;15006;48.584;9.186;2024-01-30T03:34:29;-2.30;90.20
27567;DHT22;15006;48.584;9.186;2024-01-30T03:36:55;-2.30;90.20
27567;DHT22;15006;48.584;9.186;2024-01-30T03:39:22;-2.30;90.30
27567;DHT22;15006;48.584;9.186;2024-01-30T03:41:48;-2.40;90.30
27567;DHT22;15006;48.584;9.186;2024-01-30T03:44:14;-2.40;90.40
27567;DHT22;15006;48.584;9.186;2024-01-30T03:46:40;-2.40;91.30
27567;DHT22;15006;48.584;9.186;2024-01-30T03:49:06;-2.40;91.80
27567;DHT22;15006;48.584;9.186;2024-01-30T03:51:32;-2.40;92.00
27567;DHT22;15006;48.584;9.186;2024-01-30T03:53:58;-2.40;92.10
27567;DHT22;15006;48.584;9.186;2024-01-30T03:56:24;-2.40;91.90
27567;DHT22;15006;48.584;9.186;2024-01-30T03:58:51;-2.30;91.70
27567;DHT22;15006;48.584;9.186;2024-01-30T04:01:17;-2.40;91.40
27567;DHT22;15006;48.584;9.186;2024-01-30T04:03:43;-2.30;91.30
27567;DHT22;15006;48.584;9.186;2024-01-30T04:06:10;-2.30;91.20
27567;DHT22;15006;48.584;9.186;2024-01-30T04:08:37;-2.40;91.20
27567;DHT22;15006;48.584;9.186;2024-01-30T04:11:04;-2.40;91.10
27567;DHT22;15006;48.584;9.186;2024-01-30T04:13:33;-2.40;91.00
27567;DHT22;15006;48.584;9.186;2024-01-30T04:16:00;-2.40;90.80
27567;DHT22;15006;48.584;9.186;2024-01-30T04:18:29;-2.50;90.90
27567;DHT22;15006;48.584;9.186;2024-01-30T04:20:55;-2.50;91.00
27567;DHT22;15006;48.584;9.186;2024-01-30T04:23:21;-2.60;91.10
27567;DHT22;15006;48.584;9.186;2024-01-30T04:25:47;-2.60;91.10
27567;DHT22;15006;48.584;9.186;2024-01-30T04:28:13;-2.60;91.00
27567;DHT22;15006;48.584;9.186;2024-01-30T04:30:39;-2.60;91.10
27567;DHT22;15006;48.584;9.186;2024-01-30T04:33:05;-2.60;91.20
27567;DHT22;15006;48.584;9.186;2024-01-30T04:35:31;-2.70;91.30
27567;DHT22;15006;48.584;9.186;2024-01-30T04:37:57;-2.70;91.30
27567;DHT22;15006;48.584;9.186;2024-01-30T04:40:23;-2.70;91.30
27567;DHT22;15006;48.584;9.186;2024-01-30T04:42:49;-2.70;91.20
27567;DHT22;15006;48.584;9.186;2024-01-30T04:45:16;-2.70;91.10
27567;DHT22;15006;48.584;9.186;2024-01-30T04:47:42;-2.80;91.20
27567;DHT22;15006;48.584;9.186;2024-01-30T04:50:08;-2.80;91.30
27567;DHT22;15006;48.584;9.186;2024-01-30T04:52:35;-2.80;91.30
27567;DHT22;15006;48.584;9.186;2024-01-30T04:55:01;-2.80;91.30
27567;DHT22;15006;48.584;9.186;2024-01-30T04:57:27;-2.80;91.40
27567;DHT22;15006;48.584;9.186;2024-01-30T04:59:53;-2.80;91.50
27567;DHT22;15006;48.584;9.186;2024-01-30T05:02:19;-2.90;91.50
27567;DHT22;15006;48.584;9.186;2024-01-30T05:04:45;-2.80;91.60
27567;DHT22;15006;48.584;9.186;2024-01-30T05:07:11;-2.90;91.60
27567;DHT22;15006;48.584;9.186;2024-01-30T05:09:37;-2.90;91.70
27567;DHT22;15006;48.584;9.186;2024-01-30T05:12:03;-2.90;91.80
27567;DHT22;15006;48.584;9.186;2024-01-30T05:14:29;-2.90;91.70
27567;DHT22;15006;48.584;9.186;2024-01-30T05:16:55;-2.90;91.60
27567;DHT22;15006;48.584;9.186;2024-01-30T05:19:21;-2.90;91.40
27567;DHT22;15006;48.584;9.186;2024-01-30T05:21:49;-2.90;91.40
27567;DHT22;15006;48.584;9.186;2024-01-30T05:24:15;-3.00;91.50
27567;DHT22;15006;48.584;9.186;2024-01-30T05:26:41;-3.00;91.50
27567;DHT22;15006;48.584;9.186;2024-01-30T05:29:07;-3.00;91.70
27567;DHT22;15006;48.584;9.186;2024-01-30T05:31:34;-3.00;92.00
27567;DHT22;15006;48.584;9.186;2024-01-30T05:34:00;-3.00;92.10
27567;DHT22;15006;48.584;9.186;2024-01-30T05:36:26;-3.00;92.10
27567;DHT22;15006;48.584;9.186;2024-01-30T05:38:52;-3.00;92.10
27567;DHT22;15006;48.584;9.186;2024-01-30T05:41:19;-3.00;92.00
27567;DHT22;15006;48.584;9.186;2024-01-30T05:43:46;-3.10;91.90
27567;DHT22;15006;48.584;9.186;2024-01-30T05:46:12;-3.10;91.90
27567;DHT22;15006;48.584;9.186;2024-01-30T05:48:38;-3.10;92.10
27567;DHT22;15006;48.584;9.186;2024-01-30T05:51:05;-3.10;93.00
27567;DHT22;15006;48.584;9.186;2024-01-30T05:53:32;-3.00;93.40
27567;DHT22;15006;48.584;9.186;2024-01-30T05:56:02;-3.00;93.70
27567;DHT22;15006;48.584;9.186;2024-01-30T05:58:28;-3.00;93.90
27567;DHT22;15006;48.584;9.186;2024-01-30T06:00:54;-2.90;93.70
27567;DHT22;15006;48.584;9.186;2024-01-30T06:03:20;-2.90;93.50
27567;DHT22;15006;48.584;9.186;2024-01-30T06:05:46;-2.90;93.40
27567;DHT22;15006;48.584;9.186;2024-01-30T06:08:12;-2.90;93.30
27567;DHT22;15006;48.584;9.186;2024-01-30T06:10:38;-2.90;93.00
27567;DHT22;15006;48.584;9.186;2024-01-30T06:13:04;-2.90;92.80
27567;DHT22;15006;48.584;9.186;2024-01-30T06:15:30;-2.90;93.00
27567;DHT22;15006;48.584;9.186;2024-01-30T06:17:58;-2.90;93.30
27567;DHT22;15006;48.584;9.186;2024-01-30T06:20:25;-2.90;93.50
27567;DHT22;15006;48.584;9.186;2024-01-30T06:22:51;-2.90;93.40
27567;DHT22;15006;48.584;9.186;2024-01-30T06:25:17;-2.90;93.10
27567;DHT22;15006;48.584;9.186;2024-01-30T06:27:43;-2.90;92.80
27567;DHT22;15006;48.584;9.186;2024-01-30T06:30:09;-2.90;92.50
27567;DHT22;15006;48.584;9.186;2024-01-30T06:32:36;-3.00;92.40
27567;DHT22;15006;48.584;9.186;2024-01-30T06:35:03;-3.00;92.40
27567;DHT22;15006;48.584;9.186;2024-01-30T06:37:29;-3.00;92.40
27567;DHT22;15006;48.584;9.186;2024-01-30T06:39:55;-3.00;92.40
27567;DHT22;15006;48.584;9.186;2024-01-30T06:42:21;-3.00;92.40
27567;DHT22;15006;48.584;9.186;2024-01-30T06:44:47;-3.10;92.40
27567;DHT22;15006;48.584;9.186;2024-01-30T06:47:13;-3.10;92.30
27567;DHT22;15006;48.584;9.186;2024-01-30T06:49:39;-3.10;92.30
27567;DHT22;15006;48.584;9.186;2024-01-30T06:52:08;-3.10;92.20
27567;DHT22;15006;48.584;9.186;2024-01-30T06:54:34;-3.10;92.20
27567;DHT22;15006;48.584;9.186;2024-01-30T06:57:00;-3.10;92.20
27567;DHT22;15006;48.584;9.186;2024-01-30T06:59:26;-3.10;92.30
27567;DHT22;15006;48.584;9.186;2024-01-30T07:01:52;-3.20;92.30
27567;DHT22;15006;48.584;9.186;2024-01-30T07:04:18;-3.20;92.40
27567;DHT22;15006;48.584;9.186;2024-01-30T07:06:44;-3.20;92.50
27567;DHT22;15006;48.584;9.186;2024-01-30T07:09:10;-3.20;92.60
27567;DHT22;15006;48.584;9.186;2024-01-30T07:11:37;-3.20;92.60
27567;DHT22;15006;48.584;9.186;2024-01-30T07:14:02;-3.20;92.60
27567;DHT22;15006;48.584;9.186;2024-01-30T07:16:31;-3.20;92.80
27567;DHT22;15006;48.584;9.186;2024-01-30T07:18:57;-3.20;93.00
27567;DHT22;15006;48.584;9.186;2024-01-30T07:21:23;-3.10;93.20
27567;DHT22;15006;48.584;9.186;2024-01-30T07:23:57;-3.10;93.40
27567;DHT22;15006;48.584;9.186;2024-01-30T07:26:23;-3.10;93.60
27567;DHT22;15006;48.584;9.186;2024-01-30T07:28:49;-3.00;93.60
27567;DHT22;15006;48.584;9.186;2024-01-30T07:31:15;-3.00;93.60
27567;DHT22;15006;48.584;9.186;2024-01-30T07:33:42;-3.00;93.80
27567;DHT22;15006;48.584;9.186;2024-01-30T07:36:07;-2.90;94.30
27567;DHT22;15006;48.584;9.186;2024-01-30T07:38:34;-2.80;94.70
27567;DHT22;15006;48.584;9.186;2024-01-30T07:41:00;-2.80;95.00
27567;DHT22;15006;48.584;9.186;2024-01-30T07:43:26;-2.70;95.00
27567;DHT22;15006;48.584;9.186;2024-01-30T07:45:52;-2.60;95.00
27567;DHT22;15006;48.584;9.186;2024-01-30T07:48:18;-2.50;95.00
27567;DHT22;15006;48.584;9.186;2024-01-30T07:50:44;-2.40;95.00
27567;DHT22;15006;48.584;9.186;2024-01-30T07:53:10;-2.30;95.00
27567;DHT22;15006;48.584;9.186;2024-01-30T07:55:35;-2.30;95.00
27567;DHT22;15006;48.584;9.186;2024-01-30T07:58:01;-2.20;95.00
27567;DHT22;15006;48.584;9.186;2024-01-30T08:00:29;-2.10;95.10
27567;DHT22;15006;48.584;9.186;2024-01-30T08:02:55;-2.00;95.10
27567;DHT22;15006;48.584;9.186;2024-01-30T08:05:22;-1.90;95.20
27567;DHT22;15006;48.584;9.186;2024-01-30T08:07:49;-1.80;95.20
27567;DHT22;15006;48.584;9.186;2024-01-30T08:10:15;-1.70;95.20
27567;DHT22;15006;48.584;9.186;2024-01-30T08:12:43;-1.60;95.20
27567;DHT22;15006;48.584;9.186;2024-01-30T08:15:10;-1.50;95.20
27567;DHT22;15006;48.584;9.186;2024-01-30T08:17:37;-1.40;95.20
27567;DHT22;15006;48.584;9.186;2024-01-30T08:20:04;-1.20;95.20
27567;DHT22;15006;48.584;9.186;2024-01-30T08:22:30;-1.10;95.40
27567;DHT22;15006;48.584;9.186;2024-01-30T08:24:56;-1.00;95.30
27567;DHT22;15006;48.584;9.186;2024-01-30T08:27:22;-0.90;95.30
27567;DHT22;15006;48.584;9.186;2024-01-30T08:29:48;-0.80;95.20
27567;DHT22;15006;48.584;9.186;2024-01-30T08:32:15;-0.60;95.10
27567;DHT22;15006;48.584;9.186;2024-01-30T08:34:42;-0.50;95.10
27567;DHT22;15006;48.584;9.186;2024-01-30T08:37:08;-0.40;95.00
27567;DHT22;15006;48.584;9.186;2024-01-30T08:39:34;-0.30;95.20
27567;DHT22;15006;48.584;9.186;2024-01-30T08:42:00;-0.20;94.80
27567;DHT22;15006;48.584;9.186;2024-01-30T08:44:26;0.00;94.70
27567;DHT22;15006;48.584;9.186;2024-01-30T08:46:53;0.10;94.30
27567;DHT22;15006;48.584;9.186;2024-01-30T08:49:19;0.20;94.30
27567;DHT22;15006;48.584;9.186;2024-01-30T08:51:46;0.30;93.90
27567;DHT22;15006;48.584;9.186;2024-01-30T08:54:12;0.40;93.70
27567;DHT22;15006;48.584;9.186;2024-01-30T08:56:38;0.50;93.30
27567;DHT22;15006;48.584;9.186;2024-01-30T08:59:05;0.60;93.10
27567;DHT22;15006;48.584;9.186;2024-01-30T09:01:30;0.70;93.00
27567;DHT22;15006;48.584;9.186;2024-01-30T09:03:56;0.80;93.00
27567;DHT22;15006;48.584;9.186;2024-01-30T09:06:22;0.90;93.00
27567;DHT22;15006;48.584;9.186;2024-01-30T09:08:50;1.00;92.90
27567;DHT22;15006;48.584;9.186;2024-01-30T09:11:16;1.10;92.80
27567;DHT22;15006;48.584;9.186;2024-01-30T09:13:42;1.10;92.60
27567;DHT22;15006;48.584;9.186;2024-01-30T09:16:09;1.20;92.60
27567;DHT22;15006;48.584;9.186;2024-01-30T09:18:35;1.30;92.50
27567;DHT22;15006;48.584;9.186;2024-01-30T09:21:00;1.40;92.60
27567;DHT22;15006;48.584;9.186;2024-01-30T09:23:27;1.40;92.60
27567;DHT22;15006;48.584;9.186;2024-01-30T09:25:53;1.50;92.50
27567;DHT22;15006;48.584;9.186;2024-01-30T09:28:20;1.60;92.60
27567;DHT22;15006;48.584;9.186;2024-01-30T09:30:46;1.70;92.70
27567;DHT22;15006;48.584;9.186;2024-01-30T09:33:12;1.80;92.50
27567;DHT22;15006;48.584;9.186;2024-01-30T09:35:38;2.00;92.00
27567;DHT22;15006;48.584;9.186;2024-01-30T09:38:04;2.10;91.50
27567;DHT22;15006;48.584;9.186;2024-01-30T09:40:30;2.20;91.20
27567;DHT22;15006;48.584;9.186;2024-01-30T09:42:56;2.30;90.90
27567;DHT22;15006;48.584;9.186;2024-01-30T09:45:26;2.50;90.80
27567;DHT22;15006;48.584;9.186;2024-01-30T09:47:52;2.60;89.60
27567;DHT22;15006;48.584;9.186;2024-01-30T09:50:19;2.70;89.80
27567;DHT22;15006;48.584;9.186;2024-01-30T09:52:49;2.80;88.60
27567;DHT22;15006;48.584;9.186;2024-01-30T09:55:17;2.90;87.70
27567;DHT22;15006;48.584;9.186;2024-01-30T09:57:42;3.00;87.90
27567;DHT22;15006;48.584;9.186;2024-01-30T10:00:09;3.10;87.70
27567;DHT22;15006;48.584;9.186;2024-01-30T10:02:36;3.30;88.00
27567;DHT22;15006;48.584;9.186;2024-01-30T10:05:02;3.40;86.60
27567;DHT22;15006;48.584;9.186;2024-01-30T10:07:28;3.50;86.60
27567;DHT22;15006;48.584;9.186;2024-01-30T10:09:55;3.70;87.50
27567;DHT22;15006;48.584;9.186;2024-01-30T10:12:22;3.80;87.40
27567;DHT22;15006;48.584;9.186;2024-01-30T10:14:51;4.00;87.20
27567;DHT22;15006;48.584;9.186;2024-01-30T10:17:17;4.10;86.40
27567;DHT22;15006;48.584;9.186;2024-01-30T10:19:43;4.20;84.90
27567;DHT22;15006;48.584;9.186;2024-01-30T10:22:09;4.30;84.40
27567;DHT22;15006;48.584;9.186;2024-01-30T10:24:35;4.40;83.70
27567;DHT22;15006;48.584;9.186;2024-01-30T10:27:01;4.50;82.90
27567;DHT22;15006;48.584;9.186;2024-01-30T10:29:28;4.60;82.10
27567;DHT22;15006;48.584;9.186;2024-01-30T10:31:58;4.60;81.40
27567;DHT22;15006;48.584;9.186;2024-01-30T10:34:27;4.70;81.00
27567;DHT22;15006;48.584;9.186;2024-01-30T10:37:20;4.70;81.20
27567;DHT22;15006;48.584;9.186;2024-01-30T10:39:47;4.80;79.70
27567;DHT22;15006;48.584;9.186;2024-01-30T10:42:18;4.90;81.30
27567;DHT22;15006;48.584;9.186;2024-01-30T10:45:00;4.90;80.70
27567;DHT22;15006;48.584;9.186;2024-01-30T10:47:34;5.00;79.70
27567;DHT22;15006;48.584;9.186;2024-01-30T10:50:04;5.10;80.60
27567;DHT22;15006;48.584;9.186;2024-01-30T10:52:31;5.20;80.80
27567;DHT22;15006;48.584;9.186;2024-01-30T10:54:58;5.30;80.50
27567;DHT22;15006;48.584;9.186;2024-01-30T10:57:26;5.40;81.00
27567;DHT22;15006;48.584;9.186;2024-01-30T10:59:56;5.50;81.70
27567;DHT22;15006;48.584;9.186;2024-01-30T11:02:23;5.60;81.80
27567;DHT22;15006;48.584;9.186;2024-01-30T11:04:50;5.80;81.70
27567;DHT22;15006;48.584;9.186;2024-01-30T11:07:26;5.90;81.30
27567;DHT22;15006;48.584;9.186;2024-01-30T11:12:23;6.10;79.80
27567;DHT22;15006;48.584;9.186;2024-01-30T11:17:51;6.30;78.70
27567;DHT22;15006;48.584;9.186;2024-01-30T11:22:47;6.40;78.70
27567;DHT22;15006;48.584;9.186;2024-01-30T11:25:18;6.40;79.00
27567;DHT22;15006;48.584;9.186;2024-01-30T11:27:46;6.50;79.00
27567;DHT22;15006;48.584;9.186;2024-01-30T11:30:26;6.60;78.70
27567;DHT22;15006;48.584;9.186;2024-01-30T11:33:04;6.70;77.60
27567;DHT22;15006;48.584;9.186;2024-01-30T11:35:36;6.80;77.80
27567;DHT22;15006;48.584;9.186;2024-01-30T11:38:10;6.90;78.60
27567;DHT22;15006;48.584;9.186;2024-01-30T11:40:38;7.00;78.40
27567;DHT22;15006;48.584;9.186;2024-01-30T11:43:06;7.10;78.60
27567;DHT22;15006;48.584;9.186;2024-01-30T11:45:34;7.20;78.10
27567;DHT22;15006;48.584;9.186;2024-01-30T11:48:01;7.30;77.90
27567;DHT22;15006;48.584;9.186;2024-01-30T11:50:33;7.40;77.70
27567;DHT22;15006;48.584;9.186;2024-01-30T11:53:02;7.50;76.80
27567;DHT22;15006;48.584;9.186;2024-01-30T11:55:31;7.60;77.10
27567;DHT22;15006;48.584;9.186;2024-01-30T11:57:58;7.70;76.70
27567;DHT22;15006;48.584;9.186;2024-01-30T12:00:25;7.70;77.00
27567;DHT22;15006;48.584;9.186;2024-01-30T12:02:52;7.80;76.70
27567;DHT22;15006;48.584;9.186;2024-01-30T12:05:27;7.90;76.20
27567;DHT22;15006;48.584;9.186;2024-01-30T12:07:54;8.00;75.60
27567;DHT22;15006;48.584;9.186;2024-01-30T12:10:20;8.10;76.20
27567;DHT22;15006;48.584;9.186;2024-01-30T12:12:48;8.20;75.80
27567;DHT22;15006;48.584;9.186;2024-01-30T12:15:16;8.30;75.30
27567;DHT22;15006;48.584;9.186;2024-01-30T12:17:42;8.40;75.30
27567;DHT22;15006;48.584;9.186;2024-01-30T12:20:13;8.40;74.80
27567;DHT22;15006;48.584;9.186;2024-01-30T12:22:41;8.50;73.80
27567;DHT22;15006;48.584;9.186;2024-01-30T12:25:15;8.50;73.60
27567;DHT22;15006;48.584;9.186;2024-01-30T12:27:42;8.60;73.20
27567;DHT22;15006;48.584;9.186;2024-01-30T12:30:12;8.60;72.80
27567;DHT22;15006;48.584;9.186;2024-01-30T12:32:46;8.60;73.00
27567;DHT22;15006;48.584;9.186;2024-01-30T12:35:15;8.60;72.60
27567;DHT22;15006;48.584;9.186;2024-01-30T12:37:45;8.60;72.60
27567;DHT22;15006;48.584;9.186;2024-01-30T12:40:14;8.60;72.40
27567;DHT22;15006;48.584;9.186;2024-01-30T12:42:43;8.70;72.20
27567;DHT22;15006;48.584;9.186;2024-01-30T12:45:14;8.70;72.90
27567;DHT22;15006;48.584;9.186;2024-01-30T12:47:41;8.70;73.10
27567;DHT22;15006;48.584;9.186;2024-01-30T12:50:07;8.80;73.10
27567;DHT22;15006;48.584;9.186;2024-01-30T12:52:35;8.90;72.90
27567;DHT22;15006;48.584;9.186;2024-01-30T12:55:01;9.00;72.60
27567;DHT22;15006;48.584;9.186;2024-01-30T12:57:29;9.10;72.90
27567;DHT22;15006;48.584;9.186;2024-01-30T12:59:55;9.40;74.10
27567;DHT22;15006;48.584;9.186;2024-01-30T13:02:22;9.60;73.80
27567;DHT22;15006;48.584;9.186;2024-01-30T13:04:48;9.80;72.70
27567;DHT22;15006;48.584;9.186;2024-01-30T13:07:14;10.00;70.80
27567;DHT22;15006;48.584;9.186;2024-01-30T13:09:40;10.20;69.90
27567;DHT22;15006;48.584;9.186;2024-01-30T13:12:06;10.30;68.70
27567;DHT22;15006;48.584;9.186;2024-01-30T13:14:32;10.40;68.60
27567;DHT22;15006;48.584;9.186;2024-01-30T13:16:58;10.60;68.20
27567;DHT22;15006;48.584;9.186;2024-01-30T13:19:24;10.70;66.50
27567;DHT22;15006;48.584;9.186;2024-01-30T13:21:50;10.70;65.80
27567;DHT22;15006;48.584;9.186;2024-01-30T13:24:16;10.70;65.30
27567;DHT22;15006;48.584;9.186;2024-01-30T13:26:47;10.60;65.10
27567;DHT22;15006;48.584;9.186;2024-01-30T13:29:12;10.50;64.90
27567;DHT22;15006;48.584;9.186;2024-01-30T13:31:39;10.40;64.90
27567;DHT22;15006;48.584;9.186;2024-01-30T13:34:05;10.30;64.80
27567;DHT22;15006;48.584;9.186;2024-01-30T13:36:32;10.20;65.20
27567;DHT22;15006;48.584;9.186;2024-01-30T13:38:58;10.10;64.90
27567;DHT22;15006;48.584;9.186;2024-01-30T13:41:24;10.00;64.50
27567;DHT22;15006;48.584;9.186;2024-01-30T13:43:50;9.90;64.60
27567;DHT22;15006;48.584;9.186;2024-01-30T13:46:16;9.80;64.70
27567;DHT22;15006;48.584;9.186;2024-01-30T13:48:42;9.80;64.40
27567;DHT22;15006;48.584;9.186;2024-01-30T13:51:09;9.80;64.70
27567;DHT22;15006;48.584;9.186;2024-01-30T13:53:36;9.80;64.10
27567;DHT22;15006;48.584;9.186;2024-01-30T13:56:02;9.80;64.00
27567;DHT22;15006;48.584;9.186;2024-01-30T13:58:28;9.80;64.30
27567;DHT22;15006;48.584;9.186;2024-01-30T14:00:54;9.80;64.10
27567;DHT22;15006;48.584;9.186;2024-01-30T14:03:20;9.80;64.20
27567;DHT22;15006;48.584;9.186;2024-01-30T14:05:46;9.90;64.90
27567;DHT22;15006;48.584;9.186;2024-01-30T14:08:12;9.90;64.70
27567;DHT22;15006;48.584;9.186;2024-01-30T14:10:39;10.10;64.50
27567;DHT22;15006;48.584;9.186;2024-01-30T14:13:04;10.20;63.50
27567;DHT22;15006;48.584;9.186;2024-01-30T14:15:30;10.20;61.90
27567;DHT22;15006;48.584;9.186;2024-01-30T14:17:57;10.30;61.20
27567;DHT22;15006;48.584;9.186;2024-01-30T14:20:23;10.30;60.60
27567;DHT22;15006;48.584;9.186;2024-01-30T14:22:51;10.30;60.40
27567;DHT22;15006;48.584;9.186;2024-01-30T14:25:18;10.30;60.60
27567;DHT22;15006;48.584;9.186;2024-01-30T14:27:45;10.20;60.90
27567;DHT22;15006;48.584;9.186;2024-01-30T14:30:11;10.20;61.90
27567;DHT22;15006;48.584;9.186;2024-01-30T14:32:37;10.20;62.30
27567;DHT22;15006;48.584;9.186;2024-01-30T14:35:05;10.20;62.80
27567;DHT22;15006;48.584;9.186;2024-01-30T14:37:31;10.30;62.80
27567;DHT22;15006;48.584;9.186;2024-01-30T14:39:57;10.30;62.60
27567;DHT22;15006;48.584;9.186;2024-01-30T14:42:23;10.50;63.30
27567;DHT22;15006;48.584;9.186;2024-01-30T14:44:49;10.50;62.90
27567;DHT22;15006;48.584;9.186;2024-01-30T14:47:17;10.50;62.00
27567;DHT22;15006;48.584;9.186;2024-01-30T14:49:43;10.50;62.00
27567;DHT22;15006;48.584;9.186;2024-01-30T14:52:09;10.50;60.50
27567;DHT22;15006;48.584;9.186;2024-01-30T14:54:36;10.50;61.70
27567;DHT22;15006;48.584;9.186;2024-01-30T14:57:02;10.50;61.50
27567;DHT22;15006;48.584;9.186;2024-01-30T14:59:30;10.30;61.30
27567;DHT22;15006;48.584;9.186;2024-01-30T15:01:56;10.30;62.20
27567;DHT22;15006;48.584;9.186;2024-01-30T15:04:21;10.20;62.70
27567;DHT22;15006;48.584;9.186;2024-01-30T15:06:48;10.10;62.20
27567;DHT22;15006;48.584;9.186;2024-01-30T15:09:15;10.00;62.50
27567;DHT22;15006;48.584;9.186;2024-01-30T15:11:43;9.80;62.80
27567;DHT22;15006;48.584;9.186;2024-01-30T15:14:09;9.70;63.50
27567;DHT22;15006;48.584;9.186;2024-01-30T15:16:36;9.50;63.80
27567;DHT22;15006;48.584;9.186;2024-01-30T15:19:02;9.40;63.60
27567;DHT22;15006;48.584;9.186;2024-01-30T15:21:31;9.20;64.00
27567;DHT22;15006;48.584;9.186;2024-01-30T15:23:57;9.00;64.40
27567;DHT22;15006;48.584;9.186;2024-01-30T15:26:24;8.80;65.10
27567;DHT22;15006;48.584;9.186;2024-01-30T15:28:51;8.70;65.20
27567;DHT22;15006;48.584;9.186;2024-01-30T15:31:17;8.60;65.20
27567;DHT22;15006;48.584;9.186;2024-01-30T15:33:44;8.40;65.50
27567;DHT22;15006;48.584;9.186;2024-01-30T15:36:11;8.30;65.70
27567;DHT22;15006;48.584;9.186;2024-01-30T15:38:40;8.10;65.90
27567;DHT22;15006;48.584;9.186;2024-01-30T15:41:06;8.00;66.50